Time;durP1;ratioP1;P1;durP2;ratioP2;P2;SDS_P1;SDS_P2;PMS_P1;PMS_P2;Temp;Humidity;BMP_temperature;BMP_pressure;BME280_temperature;BME280_humidity;BME280_pressure;Samples;Min_cycle;Max_cycle;Signal;HPM_P1;HPM_P2
2023/06/18 00:01:17;;;;;;;;;;;16.50;97.90;;;;;;5095178;28;19982;-64
2023/06/18 00:03:42;;;;;;;;;;;16.40;97.80;;;;;;5094959;28;20017;-66
2023/06/18 00:06:08;;;;;;;;;;;16.40;98.00;;;;;;5094994;28;20088;-65
2023/06/18 00:08:34;;;;;;;;;;;16.40;97.70;;;;;;5094615;28;20074;-66
2023/06/18 00:10:59;;;;;;;;;;;16.40;97.70;;;;;;5095265;28;19989;-65
2023/06/18 00:13:25;;;;;;;;;;;16.40;97.60;;;;;;5094854;28;20075;-65
2023/06/18 00:15:50;;;;;;;;;;;16.30;97.60;;;;;;5094314;28;19988;-65
2023/06/18 00:18:16;;;;;;;;;;;16.20;97.90;;;;;;5095062;28;20436;-64
2023/06/18 00:20:41;;;;;;;;;;;16.10;98.10;;;;;;5094780;28;19985;-64
2023/06/18 00:23:07;;;;;;;;;;;16.00;98.30;;;;;;5094535;28;19987;-65
2023/06/18 00:25:33;;;;;;;;;;;16.00;98.40;;;;;;5094824;28;19989;-65
2023/06/18 00:27:58;;;;;;;;;;;16.10;98.50;;;;;;5094668;28;20066;-64
2023/06/18 00:30:24;;;;;;;;;;;16.10;98.30;;;;;;5094633;28;19981;-64
2023/06/18 00:32:51;;;;;;;;;;;16.10;98.30;;;;;;5094848;28;20027;-65
2023/06/18 00:35:17;;;;;;;;;;;16.10;98.60;;;;;;5094661;28;19981;-64
2023/06/18 00:37:45;;;;;;;;;;;16.10;98.80;;;;;;5094340;28;19982;-64
2023/06/18 00:40:12;;;;;;;;;;;16.10;98.80;;;;;;5094454;28;19981;-65
2023/06/18 00:42:39;;;;;;;;;;;16.10;98.60;;;;;;5094605;28;20084;-64
2023/06/18 00:45:05;;;;;;;;;;;16.10;98.50;;;;;;5094409;28;20043;-64
2023/06/18 00:47:31;;;;;;;;;;;16.10;98.40;;;;;;5094184;28;20048;-64
2023/06/18 00:49:57;;;;;;;;;;;16.10;98.40;;;;;;5094288;28;20015;-64
2023/06/18 00:52:23;;;;;;;;;;;16.10;98.40;;;;;;5094311;28;19985;-64
2023/06/18 00:54:50;;;;;;;;;;;16.10;98.50;;;;;;5094155;28;20008;-64
2023/06/18 00:57:17;;;;;;;;;;;16.10;98.50;;;;;;5094186;28;19992;-65
2023/06/18 00:59:43;;;;;;;;;;;16.10;98.30;;;;;;5094186;28;20092;-65
2023/06/18 01:02:09;;;;;;;;;;;16.10;98.50;;;;;;5093846;28;19981;-65
2023/06/18 01:04:36;;;;;;;;;;;16.00;98.20;;;;;;5094062;28;20450;-64
2023/06/18 01:07:02;;;;;;;;;;;16.00;98.80;;;;;;5093813;28;20459;-65
2023/06/18 01:09:29;;;;;;;;;;;16.00;98.60;;;;;;5093828;28;20087;-64
2023/06/18 01:11:54;;;;;;;;;;;15.90;98.80;;;;;;5094066;28;20498;-64
2023/06/18 01:14:27;;;;;;;;;;;15.90;98.80;;;;;;5093948;28;20028;-63
2023/06/18 01:16:57;;;;;;;;;;;16.00;98.70;;;;;;5092556;28;20533;-66
2023/06/18 01:19:33;;;;;;;;;;;15.90;98.70;;;;;;5094158;28;19991;-64
2023/06/18 01:22:02;;;;;;;;;;;15.90;99.00;;;;;;5093892;28;20446;-64
2023/06/18 01:24:30;;;;;;;;;;;15.90;98.90;;;;;;5093846;28;19989;-64
2023/06/18 01:26:56;;;;;;;;;;;15.90;99.00;;;;;;5093426;28;19990;-64
2023/06/18 01:29:24;;;;;;;;;;;15.80;98.80;;;;;;5093132;28;20009;-64
2023/06/18 01:31:51;;;;;;;;;;;15.90;98.60;;;;;;5093684;28;20035;-65
2023/06/18 01:34:17;;;;;;;;;;;15.90;98.70;;;;;;5093730;28;20029;-65
2023/06/18 01:36:47;;;;;;;;;;;15.80;98.80;;;;;;5093553;28;20024;-65
2023/06/18 01:39:25;;;;;;;;;;;15.80;98.60;;;;;;5093822;28;20003;-65
2023/06/18 01:41:54;;;;;;;;;;;15.80;98.40;;;;;;5093642;28;20450;-63
2023/06/18 01:44:21;;;;;;;;;;;15.80;98.70;;;;;;5093554;28;19986;-64
2023/06/18 01:46:49;;;;;;;;;;;15.70;98.90;;;;;;5093723;28;19981;-65
2023/06/18 01:49:15;;;;;;;;;;;15.70;98.80;;;;;;5093600;28;20009;-66
2023/06/18 01:51:41;;;;;;;;;;;15.70;98.80;;;;;;5093604;28;19985;-64
2023/06/18 01:54:07;;;;;;;;;;;15.60;99.00;;;;;;5093572;28;19981;-64
2023/06/18 01:56:33;;;;;;;;;;;15.50;99.10;;;;;;5093539;28;20451;-65
2023/06/18 01:58:59;;;;;;;;;;;15.50;99.20;;;;;;5093464;28;19981;-64
2023/06/18 02:01:26;;;;;;;;;;;15.40;99.10;;;;;;5093500;28;19981;-64
2023/06/18 02:03:51;;;;;;;;;;;15.40;99.20;;;;;;5093347;28;20021;-66
2023/06/18 02:06:17;;;;;;;;;;;15.40;98.90;;;;;;5093123;28;20000;-65
2023/06/18 02:08:43;;;;;;;;;;;15.40;98.60;;;;;;5093290;28;20011;-66
2023/06/18 02:11:08;;;;;;;;;;;15.40;98.50;;;;;;5093457;28;19981;-63
2023/06/18 02:13:34;;;;;;;;;;;15.30;98.40;;;;;;5093270;28;20027;-65
2023/06/18 02:15:59;;;;;;;;;;;15.30;98.30;;;;;;5093471;28;19981;-64
2023/06/18 02:18:25;;;;;;;;;;;15.30;98.50;;;;;;5093079;28;19982;-64
2023/06/18 02:20:51;;;;;;;;;;;15.30;98.90;;;;;;5093362;28;20096;-64
2023/06/18 02:23:17;;;;;;;;;;;15.20;99.20;;;;;;5093508;28;19981;-64
2023/06/18 02:25:44;;;;;;;;;;;15.20;99.00;;;;;;5093279;28;20083;-65
2023/06/18 02:28:10;;;;;;;;;;;15.20;99.20;;;;;;5093162;28;20137;-64
2023/06/18 02:30:35;;;;;;;;;;;15.20;99.20;;;;;;5093145;28;20084;-65
2023/06/18 02:33:02;;;;;;;;;;;15.20;99.20;;;;;;5093207;28;20031;-65
2023/06/18 02:35:28;;;;;;;;;;;15.20;99.30;;;;;;5093000;28;19982;-65
2023/06/18 02:37:54;;;;;;;;;;;15.10;99.20;;;;;;5093067;28;19989;-64
2023/06/18 02:40:20;;;;;;;;;;;15.20;99.00;;;;;;5096011;28;19981;-66
2023/06/18 02:42:48;;;;;;;;;;;15.10;99.20;;;;;;5096768;28;20026;-66
2023/06/18 02:45:16;;;;;;;;;;;15.00;99.40;;;;;;5096563;28;19981;-66
2023/06/18 02:47:42;;;;;;;;;;;15.00;99.70;;;;;;5096373;28;20009;-64
2023/06/18 02:50:08;;;;;;;;;;;15.00;99.60;;;;;;5096630;28;19981;-66
2023/06/18 02:52:34;;;;;;;;;;;15.00;99.70;;;;;;5096403;28;19985;-66
2023/06/18 02:54:59;;;;;;;;;;;15.00;99.40;;;;;;5096415;28;19984;-65
2023/06/18 02:57:25;;;;;;;;;;;15.00;99.60;;;;;;5096525;28;19985;-64
2023/06/18 02:59:50;;;;;;;;;;;15.00;99.70;;;;;;5096267;28;20055;-64
2023/06/18 03:02:16;;;;;;;;;;;15.00;99.80;;;;;;5096051;28;19985;-65
2023/06/18 03:04:42;;;;;;;;;;;15.10;99.70;;;;;;5096346;28;20077;-65
2023/06/18 03:07:07;;;;;;;;;;;15.00;99.60;;;;;;5096172;28;20001;-64
2023/06/18 03:09:33;;;;;;;;;;;15.00;99.60;;;;;;5096073;28;20100;-65
2023/06/18 03:11:58;;;;;;;;;;;15.10;99.60;;;;;;5096129;28;20443;-64
2023/06/18 03:14:25;;;;;;;;;;;15.10;99.40;;;;;;5096111;28;20363;-66
2023/06/18 03:16:50;;;;;;;;;;;15.00;99.50;;;;;;5095788;28;19981;-65
2023/06/18 03:19:16;;;;;;;;;;;15.00;99.50;;;;;;5096046;28;19981;-64
2023/06/18 03:21:42;;;;;;;;;;;15.00;99.40;;;;;;5095942;28;19981;-65
2023/06/18 03:24:08;;;;;;;;;;;15.00;99.50;;;;;;5095867;28;19981;-66
2023/06/18 03:26:36;;;;;;;;;;;15.00;99.60;;;;;;5095979;28;20438;-64
2023/06/18 03:29:02;;;;;;;;;;;15.00;99.80;;;;;;5095780;28;20016;-65
2023/06/18 03:31:28;;;;;;;;;;;14.90;99.90;;;;;;5095526;28;19985;-64
2023/06/18 03:33:53;;;;;;;;;;;14.90;99.90;;;;;;5095853;28;19981;-64
2023/06/18 03:36:19;;;;;;;;;;;14.90;99.90;;;;;;5095671;28;19986;-64
2023/06/18 03:38:47;;;;;;;;;;;15.00;99.90;;;;;;5095612;28;19988;-66
2023/06/18 03:41:13;;;;;;;;;;;15.00;99.90;;;;;;5095855;28;19989;-64
2023/06/18 03:43:38;;;;;;;;;;;15.00;99.90;;;;;;5095566;28;20003;-65
2023/06/18 03:46:04;;;;;;;;;;;15.10;99.90;;;;;;5095347;28;20038;-64
2023/06/18 03:48:30;;;;;;;;;;;15.10;99.90;;;;;;5095296;28;20096;-65
2023/06/18 03:50:55;;;;;;;;;;;15.10;99.90;;;;;;5094482;28;20464;-63
2023/06/18 03:53:21;;;;;;;;;;;15.10;99.90;;;;;;5095395;28;20084;-65
2023/06/18 03:55:46;;;;;;;;;;;15.10;99.80;;;;;;5095132;28;19985;-65
2023/06/18 03:58:12;;;;;;;;;;;15.20;99.90;;;;;;5095364;28;20047;-65
2023/06/18 04:00:38;;;;;;;;;;;15.20;99.90;;;;;;5095204;28;19981;-64
2023/06/18 04:03:05;;;;;;;;;;;15.30;99.80;;;;;;5094747;28;20017;-66
2023/06/18 04:05:31;;;;;;;;;;;15.30;99.80;;;;;;5095035;28;19997;-66
2023/06/18 04:07:56;;;;;;;;;;;15.30;99.90;;;;;;5095014;28;20011;-65
2023/06/18 04:10:22;;;;;;;;;;;15.40;99.60;;;;;;5094916;28;19981;-63
2023/06/18 04:12:47;;;;;;;;;;;15.40;99.30;;;;;;5095093;28;19985;-64
2023/06/18 04:15:13;;;;;;;;;;;15.40;99.00;;;;;;5094725;28;19990;-64
2023/06/18 04:17:39;;;;;;;;;;;15.40;98.90;;;;;;5094971;28;20072;-65
2023/06/18 04:20:06;;;;;;;;;;;15.40;98.90;;;;;;5094731;28;19981;-64
2023/06/18 04:22:31;;;;;;;;;;;15.40;99.10;;;;;;5094730;28;19996;-64
2023/06/18 04:24:57;;;;;;;;;;;15.40;99.30;;;;;;5094763;28;19981;-63
2023/06/18 04:27:22;;;;;;;;;;;15.40;99.20;;;;;;5094557;28;19985;-64
2023/06/18 04:29:48;;;;;;;;;;;15.50;99.20;;;;;;5094505;28;20023;-65
2023/06/18 04:32:13;;;;;;;;;;;15.50;99.30;;;;;;5094640;28;19989;-63
2023/06/18 04:34:39;;;;;;;;;;;15.60;99.60;;;;;;5094542;28;20042;-64
2023/06/18 04:37:04;;;;;;;;;;;15.60;99.40;;;;;;5094795;28;19992;-64
2023/06/18 04:39:30;;;;;;;;;;;15.70;99.80;;;;;;5094494;28;19988;-64
2023/06/18 04:41:55;;;;;;;;;;;15.70;99.60;;;;;;5094357;28;20359;-65
2023/06/18 04:44:21;;;;;;;;;;;15.80;99.60;;;;;;5094640;28;20383;-65
2023/06/18 04:46:46;;;;;;;;;;;15.80;99.60;;;;;;5094395;28;19985;-65
2023/06/18 04:49:13;;;;;;;;;;;15.90;99.50;;;;;;5094307;28;20005;-64
2023/06/18 04:51:39;;;;;;;;;;;15.90;99.60;;;;;;5094199;28;19988;-65
2023/06/18 04:54:04;;;;;;;;;;;16.00;99.70;;;;;;5094254;28;20435;-64
2023/06/18 04:56:30;;;;;;;;;;;16.00;99.70;;;;;;5094191;28;19981;-64
2023/06/18 04:58:56;;;;;;;;;;;16.00;99.80;;;;;;5093887;28;19981;-65
2023/06/18 05:01:21;;;;;;;;;;;16.10;99.90;;;;;;5094272;28;19992;-63
2023/06/18 05:03:47;;;;;;;;;;;16.20;99.90;;;;;;5093866;28;20023;-64
2023/06/18 05:06:12;;;;;;;;;;;16.30;99.90;;;;;;5093938;28;20111;-64
2023/06/18 05:08:38;;;;;;;;;;;16.30;99.90;;;;;;5094233;28;20012;-63
2023/06/18 05:11:05;;;;;;;;;;;16.40;99.90;;;;;;5093445;28;20229;-64
2023/06/18 05:13:31;;;;;;;;;;;16.40;99.90;;;;;;5093755;28;19985;-64
2023/06/18 05:15:57;;;;;;;;;;;16.50;99.90;;;;;;5094180;28;20017;-65
2023/06/18 05:18:22;;;;;;;;;;;16.50;99.90;;;;;;5093843;28;20037;-65
2023/06/18 05:20:48;;;;;;;;;;;16.50;99.90;;;;;;5093901;28;19981;-64
2023/06/18 05:23:13;;;;;;;;;;;16.60;99.90;;;;;;5093779;28;19981;-64
2023/06/18 05:25:39;;;;;;;;;;;16.70;99.90;;;;;;5094080;28;19985;-64
2023/06/18 05:28:05;;;;;;;;;;;16.70;99.90;;;;;;5093589;28;20005;-63
2023/06/18 05:30:30;;;;;;;;;;;16.80;99.90;;;;;;5093764;28;20064;-64
2023/06/18 05:32:56;;;;;;;;;;;16.90;99.90;;;;;;5093851;28;19981;-64
2023/06/18 05:35:21;;;;;;;;;;;16.90;99.90;;;;;;5093817;28;20481;-64
2023/06/18 05:37:47;;;;;;;;;;;17.00;99.90;;;;;;5093726;28;20450;-66
2023/06/18 05:40:12;;;;;;;;;;;17.10;99.90;;;;;;5093876;28;19992;-65
2023/06/18 05:42:41;;;;;;;;;;;17.20;99.90;;;;;;5093505;28;20118;-65
2023/06/18 05:45:07;;;;;;;;;;;17.30;99.80;;;;;;5093578;28;20368;-64
2023/06/18 05:47:32;;;;;;;;;;;17.40;99.60;;;;;;5093716;28;19988;-63
2023/06/18 05:49:58;;;;;;;;;;;17.50;99.90;;;;;;5093687;28;19981;-65
2023/06/18 05:52:23;;;;;;;;;;;17.60;99.50;;;;;;5093557;28;19981;-65
2023/06/18 05:54:49;;;;;;;;;;;17.70;99.90;;;;;;5094068;28;20038;-66
2023/06/18 05:57:15;;;;;;;;;;;17.80;99.30;;;;;;5093463;28;20035;-66
2023/06/18 05:59:40;;;;;;;;;;;17.90;99.50;;;;;;5093593;28;20443;-66
2023/06/18 06:02:06;;;;;;;;;;;18.00;98.90;;;;;;5093283;28;19981;-65
2023/06/18 06:04:31;;;;;;;;;;;18.10;98.70;;;;;;5093304;28;20387;-65
2023/06/18 06:06:57;;;;;;;;;;;18.30;98.60;;;;;;5093380;28;20030;-65
2023/06/18 06:09:22;;;;;;;;;;;18.40;97.90;;;;;;5093273;28;20005;-64
2023/06/18 06:11:48;;;;;;;;;;;18.50;98.30;;;;;;5093273;28;19981;-65
2023/06/18 06:14:13;;;;;;;;;;;18.60;98.50;;;;;;5094889;28;19985;-64
2023/06/18 06:16:39;;;;;;;;;;;18.70;97.20;;;;;;5097083;28;20470;-65
2023/06/18 06:19:05;;;;;;;;;;;18.70;97.20;;;;;;5097471;28;19992;-65
2023/06/18 06:21:33;;;;;;;;;;;18.80;98.10;;;;;;5097152;28;19981;-65
2023/06/18 06:23:59;;;;;;;;;;;19.00;97.10;;;;;;5097086;28;20020;-65
2023/06/18 06:26:24;;;;;;;;;;;19.20;96.20;;;;;;5096779;28;19988;-65
2023/06/18 06:28:50;;;;;;;;;;;19.20;96.30;;;;;;5097030;28;20005;-64
2023/06/18 06:31:15;;;;;;;;;;;19.40;96.90;;;;;;5096937;28;20396;-65
2023/06/18 06:33:41;;;;;;;;;;;19.60;95.50;;;;;;5096846;28;19985;-65
2023/06/18 06:36:09;;;;;;;;;;;19.70;94.50;;;;;;5096974;28;19981;-64
2023/06/18 06:38:35;;;;;;;;;;;19.70;94.60;;;;;;5096825;28;20030;-64
2023/06/18 06:41:01;;;;;;;;;;;19.70;95.00;;;;;;5096551;28;20395;-64
2023/06/18 06:43:26;;;;;;;;;;;19.80;93.80;;;;;;5096841;28;19988;-65
2023/06/18 06:45:52;;;;;;;;;;;19.90;93.30;;;;;;5096609;28;20031;-65
2023/06/18 06:48:17;;;;;;;;;;;20.00;94.00;;;;;;5096541;28;20012;-63
2023/06/18 06:50:43;;;;;;;;;;;20.00;94.00;;;;;;5096698;28;19987;-65
2023/06/18 06:53:08;;;;;;;;;;;20.20;93.10;;;;;;5096481;28;20025;-66
2023/06/18 06:55:34;;;;;;;;;;;20.30;93.00;;;;;;5096322;28;19981;-64
2023/06/18 06:57:59;;;;;;;;;;;20.40;92.90;;;;;;5096415;28;20496;-64
2023/06/18 07:00:25;;;;;;;;;;;20.40;92.40;;;;;;5096510;28;20523;-64
2023/06/18 07:02:51;;;;;;;;;;;20.50;93.40;;;;;;5096196;28;20066;-64
2023/06/18 07:05:16;;;;;;;;;;;20.60;92.30;;;;;;5096198;28;19981;-65
2023/06/18 07:07:42;;;;;;;;;;;20.70;92.00;;;;;;5096207;28;20008;-65
2023/06/18 07:10:08;;;;;;;;;;;20.80;91.60;;;;;;5096206;28;19981;-64
2023/06/18 07:12:33;;;;;;;;;;;21.00;92.80;;;;;;5096097;28;20389;-65
2023/06/18 07:14:59;;;;;;;;;;;21.10;91.10;;;;;;5096175;28;20003;-64
2023/06/18 07:17:24;;;;;;;;;;;21.20;91.70;;;;;;5096122;28;19981;-65
2023/06/18 07:19:52;;;;;;;;;;;21.40;92.10;;;;;;5095997;28;20461;-64
2023/06/18 07:22:18;;;;;;;;;;;21.40;91.60;;;;;;5096030;28;20041;-65
2023/06/18 07:24:43;;;;;;;;;;;21.60;89.00;;;;;;5095512;28;19985;-64
2023/06/18 07:27:09;;;;;;;;;;;21.80;87.80;;;;;;5094857;28;19988;-63
2023/06/18 07:29:35;;;;;;;;;;;21.90;86.40;;;;;;5095737;28;20413;-64
2023/06/18 07:32:00;;;;;;;;;;;22.00;86.00;;;;;;5096087;28;19985;-65
2023/06/18 07:34:26;;;;;;;;;;;22.10;86.30;;;;;;5095826;28;20080;-64
2023/06/18 07:36:52;;;;;;;;;;;22.20;85.40;;;;;;5095498;28;20457;-65
2023/06/18 07:39:17;;;;;;;;;;;22.40;86.10;;;;;;5095559;28;19981;-65
2023/06/18 07:41:47;;;;;;;;;;;22.50;85.40;;;;;;5095714;28;20035;-64
2023/06/18 07:44:13;;;;;;;;;;;22.70;80.40;;;;;;5095468;28;20083;-64
2023/06/18 07:46:40;;;;;;;;;;;22.60;80.90;;;;;;5095572;28;20350;-64
2023/06/18 07:49:05;;;;;;;;;;;23.40;82.60;;;;;;5095431;28;20108;-64
2023/06/18 07:51:31;;;;;;;;;;;25.70;75.50;;;;;;5095286;28;20020;-65
2023/06/18 07:53:56;;;;;;;;;;;28.20;69.50;;;;;;5095269;28;19981;-63
2023/06/18 07:56:24;;;;;;;;;;;30.00;67.60;;;;;;5095368;28;19981;-65
2023/06/18 07:58:50;;;;;;;;;;;31.30;61.10;;;;;;5095227;28;20084;-64
2023/06/18 08:01:15;;;;;;;;;;;32.40;56.60;;;;;;5095511;28;20020;-65
2023/06/18 08:03:41;;;;;;;;;;;33.40;56.20;;;;;;5094993;28;20458;-63
2023/06/18 08:06:07;;;;;;;;;;;34.10;52.40;;;;;;5094945;28;20000;-65
2023/06/18 08:08:32;;;;;;;;;;;34.70;51.30;;;;;;5094772;28;20013;-64
2023/06/18 08:10:58;;;;;;;;;;;35.00;50.80;;;;;;5095160;28;20013;-63
2023/06/18 08:13:23;;;;;;;;;;;35.30;49.70;;;;;;5094962;28;20024;-65
2023/06/18 08:15:49;;;;;;;;;;;35.30;49.70;;;;;;5094878;28;19985;-64
2023/06/18 08:18:14;;;;;;;;;;;35.40;46.50;;;;;;5094964;28;19981;-63
2023/06/18 08:20:40;;;;;;;;;;;35.10;47.30;;;;;;5094903;28;19981;-66
2023/06/18 08:23:06;;;;;;;;;;;35.60;45.30;;;;;;5094534;28;19988;-65
2023/06/18 08:25:31;;;;;;;;;;;36.00;43.30;;;;;;5094903;28;19992;-65
2023/06/18 08:27:58;;;;;;;;;;;35.00;44.20;;;;;;5094621;28;20444;-64
2023/06/18 08:30:24;;;;;;;;;;;35.10;45.70;;;;;;5094612;28;20091;-65
2023/06/18 08:32:50;;;;;;;;;;;35.00;46.80;;;;;;5094740;28;20020;-65
2023/06/18 08:35:15;;;;;;;;;;;35.20;43.80;;;;;;5094604;28;20416;-63
2023/06/18 08:37:42;;;;;;;;;;;35.30;43.50;;;;;;5093884;28;19985;-66
2023/06/18 08:40:12;;;;;;;;;;;35.30;42.90;;;;;;5094516;28;20023;-63
2023/06/18 08:42:37;;;;;;;;;;;35.20;47.10;;;;;;5094453;28;19981;-64
2023/06/18 08:45:05;;;;;;;;;;;35.10;43.20;;;;;;5094568;28;20522;-65
2023/06/18 08:47:32;;;;;;;;;;;34.00;46.20;;;;;;5094343;28;20054;-64
2023/06/18 08:49:59;;;;;;;;;;;34.10;45.00;;;;;;5094594;28;20008;-64
2023/06/18 08:52:25;;;;;;;;;;;34.60;45.90;;;;;;5094027;28;19987;-66
2023/06/18 08:54:54;;;;;;;;;;;34.90;46.40;;;;;;5094578;28;19995;-64
2023/06/18 08:57:34;;;;;;;;;;;35.10;46.30;;;;;;5094335;28;19981;-64
2023/06/18 09:00:00;;;;;;;;;;;35.60;43.60;;;;;;5094031;28;20083;-64
2023/06/18 09:02:27;;;;;;;;;;;35.80;43.80;;;;;;5094003;28;20069;-65
2023/06/18 09:04:53;;;;;;;;;;;35.70;43.90;;;;;;5094189;28;19992;-64
2023/06/18 09:07:19;;;;;;;;;;;35.30;45.10;;;;;;5093959;28;19997;-65
2023/06/18 09:09:45;;;;;;;;;;;35.50;45.90;;;;;;5093992;28;20005;-63
2023/06/18 09:12:11;;;;;;;;;;;35.70;43.80;;;;;;5094094;28;19981;-64
2023/06/18 09:14:36;;;;;;;;;;;35.70;44.10;;;;;;5092649;28;19989;-65
2023/06/18 09:17:02;;;;;;;;;;;35.80;44.40;;;;;;5094006;28;19981;-63
2023/06/18 09:19:28;;;;;;;;;;;36.00;43.30;;;;;;5094008;28;19992;-65
2023/06/18 09:21:53;;;;;;;;;;;35.60;43.80;;;;;;5093786;28;20034;-66
2023/06/18 09:24:20;;;;;;;;;;;35.30;41.80;;;;;;5093976;28;19985;-66
2023/06/18 09:26:46;;;;;;;;;;;34.10;41.50;;;;;;5094100;28;19984;-65
2023/06/18 09:29:12;;;;;;;;;;;33.50;41.90;;;;;;5094063;28;20049;-66
2023/06/18 09:31:40;;;;;;;;;;;33.80;42.90;;;;;;5093615;28;20458;-64
2023/06/18 09:34:13;;;;;;;;;;;34.30;43.90;;;;;;5093831;28;19985;-65
2023/06/18 09:36:42;;;;;;;;;;;34.50;44.60;;;;;;5093956;28;19985;-64
2023/06/18 09:39:34;;;;;;;;;;;34.30;47.40;;;;;;5093981;28;19985;-66
2023/06/18 09:42:05;;;;;;;;;;;34.50;46.20;;;;;;5092498;28;19992;-66
2023/06/18 09:44:30;;;;;;;;;;;34.70;43.60;;;;;;5093646;28;19981;-64
2023/06/18 09:46:56;;;;;;;;;;;34.40;41.30;;;;;;5093657;28;19981;-64
2023/06/18 09:49:23;;;;;;;;;;;34.30;42.70;;;;;;5094879;28;20008;-65
2023/06/18 09:51:49;;;;;;;;;;;34.00;42.30;;;;;;5097741;28;20042;-63
2023/06/18 09:54:15;;;;;;;;;;;34.10;43.30;;;;;;5097994;28;19992;-64
2023/06/18 09:56:55;;;;;;;;;;;33.90;42.70;;;;;;5097588;28;20354;-66
2023/06/18 09:59:22;;;;;;;;;;;33.80;45.80;;;;;;5097710;28;19981;-63
2023/06/18 10:01:47;;;;;;;;;;;33.80;45.00;;;;;;5097637;28;19987;-64
2023/06/18 10:04:13;;;;;;;;;;;33.90;43.50;;;;;;5097111;28;20017;-64
2023/06/18 10:06:42;;;;;;;;;;;33.80;44.00;;;;;;5097364;28;20087;-65
2023/06/18 10:09:08;;;;;;;;;;;33.60;47.60;;;;;;5097641;28;20009;-65
2023/06/18 10:11:35;;;;;;;;;;;33.80;47.50;;;;;;5097273;28;19982;-65
2023/06/18 10:14:08;;;;;;;;;;;34.00;44.40;;;;;;5097372;28;19981;-64
2023/06/18 10:16:34;;;;;;;;;;;34.20;45.30;;;;;;5097525;28;20008;-65
2023/06/18 10:19:06;;;;;;;;;;;34.50;42.50;;;;;;5097002;28;20431;-66
2023/06/18 10:21:35;;;;;;;;;;;34.20;41.70;;;;;;5097463;28;19989;-64
2023/06/18 10:24:21;;;;;;;;;;;34.50;46.10;;;;;;5097325;28;19992;-65
2023/06/18 10:26:46;;;;;;;;;;;34.30;44.90;;;;;;5097112;28;20351;-65
2023/06/18 10:29:12;;;;;;;;;;;34.20;44.60;;;;;;5096943;28;20012;-66
2023/06/18 10:31:38;;;;;;;;;;;34.20;47.20;;;;;;5096785;28;19985;-66
2023/06/18 10:34:05;;;;;;;;;;;34.50;45.20;;;;;;5097215;28;19985;-64
2023/06/18 10:36:31;;;;;;;;;;;34.80;45.30;;;;;;5096984;28;19981;-63
2023/06/18 10:38:57;;;;;;;;;;;34.90;47.00;;;;;;5096772;28;19981;-65
2023/06/18 10:41:23;;;;;;;;;;;34.40;43.90;;;;;;5097087;28;19992;-66
2023/06/18 10:43:53;;;;;;;;;;;34.00;43.50;;;;;;5096786;28;19985;-66
2023/06/18 10:46:18;;;;;;;;;;;34.10;44.80;;;;;;5096460;28;19981;-64
2023/06/18 10:49:10;;;;;;;;;;;34.50;46.00;;;;;;5096526;28;20107;-66
2023/06/18 10:51:36;;;;;;;;;;;34.70;44.10;;;;;;5095364;28;20051;-64
2023/06/18 10:54:20;;;;;;;;;;;34.70;44.30;;;;;;5096583;28;20381;-64
2023/06/18 10:56:53;;;;;;;;;;;34.70;47.70;;;;;;5096497;28;19981;-64
2023/06/18 10:59:41;;;;;;;;;;;34.30;41.40;;;;;;5096537;28;20017;-64
2023/06/18 11:02:07;;;;;;;;;;;33.50;43.50;;;;;;5096101;28;19992;-66
2023/06/18 11:04:33;;;;;;;;;;;33.80;47.60;;;;;;5096209;28;20016;-64
2023/06/18 11:07:12;;;;;;;;;;;34.20;46.50;;;;;;5096522;28;20099;-65
2023/06/18 11:09:47;;;;;;;;;;;34.70;45.90;;;;;;5096268;28;20051;-65
2023/06/18 11:12:23;;;;;;;;;;;34.60;41.90;;;;;;5096255;28;19988;-63
2023/06/18 11:15:11;;;;;;;;;;;34.30;43.60;;;;;;5096145;28;20483;-63
2023/06/18 11:17:37;;;;;;;;;;;33.90;42.70;;;;;;5096396;28;20349;-66
2023/06/18 11:20:06;;;;;;;;;;;33.90;42.90;;;;;;5096047;28;19981;-63
2023/06/18 11:22:31;;;;;;;;;;;34.40;43.70;;;;;;5096052;28;19985;-65
2023/06/18 11:24:58;;;;;;;;;;;34.60;41.30;;;;;;5096065;28;19988;-64
2023/06/18 11:27:24;;;;;;;;;;;35.00;43.40;;;;;;5095852;28;20035;-65
2023/06/18 11:29:50;;;;;;;;;;;35.20;40.70;;;;;;5095746;28;20005;-66
2023/06/18 11:32:16;;;;;;;;;;;35.20;42.20;;;;;;5096099;28;19985;-65
2023/06/18 11:34:44;;;;;;;;;;;35.00;43.40;;;;;;5095682;28;19985;-65
2023/06/18 11:37:09;;;;;;;;;;;34.80;41.40;;;;;;5095824;28;19981;-65
2023/06/18 11:39:35;;;;;;;;;;;34.90;42.60;;;;;;5095664;28;20068;-64
2023/06/18 11:42:14;;;;;;;;;;;35.00;40.30;;;;;;5095833;28;19985;-65
2023/06/18 11:44:49;;;;;;;;;;;35.20;41.00;;;;;;5095439;28;20328;-64
2023/06/18 11:47:15;;;;;;;;;;;35.30;40.80;;;;;;5095713;28;19988;-65
2023/06/18 11:49:48;;;;;;;;;;;35.40;38.60;;;;;;5095719;28;20009;-65
2023/06/18 11:52:16;;;;;;;;;;;35.00;38.00;;;;;;5095423;28;20348;-65
2023/06/18 11:54:42;;;;;;;;;;;35.00;42.70;;;;;;5095298;28;19985;-63
2023/06/18 11:57:11;;;;;;;;;;;34.90;39.60;;;;;;5095344;28;20450;-65
2023/06/18 11:59:41;;;;;;;;;;;35.20;38.00;;;;;;5095094;28;20080;-63
2023/06/18 12:02:12;;;;;;;;;;;35.20;41.90;;;;;;5095177;28;19989;-63
2023/06/18 12:04:38;;;;;;;;;;;34.80;42.40;;;;;;5095049;28;20020;-66
2023/06/18 12:07:03;;;;;;;;;;;34.10;40.40;;;;;;5095101;28;20003;-66
2023/06/18 12:09:33;;;;;;;;;;;33.40;41.60;;;;;;5094947;28;20084;-63
2023/06/18 12:12:11;;;;;;;;;;;33.00;42.50;;;;;;5094298;28;20454;-64
2023/06/18 12:14:55;;;;;;;;;;;32.60;37.60;;;;;;5094732;28;19981;-65
2023/06/18 12:17:21;;;;;;;;;;;32.70;41.90;;;;;;5095038;28;20003;-64
2023/06/18 12:19:48;;;;;;;;;;;32.60;40.70;;;;;;5094870;28;19981;-65
2023/06/18 12:22:13;;;;;;;;;;;32.60;41.50;;;;;;5095149;28;20056;-65
2023/06/18 12:24:39;;;;;;;;;;;32.50;40.70;;;;;;5094909;28;20495;-64
2023/06/18 12:27:05;;;;;;;;;;;31.90;39.60;;;;;;5095038;28;20038;-65
2023/06/18 12:29:30;;;;;;;;;;;31.30;41.50;;;;;;5094451;28;20365;-63
2023/06/18 12:31:59;;;;;;;;;;;31.30;42.10;;;;;;5094943;28;20032;-63
2023/06/18 12:34:25;;;;;;;;;;;31.70;40.50;;;;;;5094719;28;20030;-66
2023/06/18 12:36:53;;;;;;;;;;;32.30;44.00;;;;;;5094538;28;19981;-63
2023/06/18 12:39:19;;;;;;;;;;;32.50;37.50;;;;;;5094597;28;20122;-64
2023/06/18 12:41:44;;;;;;;;;;;32.30;38.20;;;;;;5094561;28;20020;-63
2023/06/18 12:44:10;;;;;;;;;;;32.10;37.60;;;;;;5094530;28;19992;-65
2023/06/18 12:46:36;;;;;;;;;;;31.90;38.10;;;;;;5094437;28;19995;-63
2023/06/18 12:49:07;;;;;;;;;;;31.50;38.00;;;;;;5094297;28;20107;-63
2023/06/18 12:51:40;;;;;;;;;;;31.40;41.30;;;;;;5094317;28;20021;-65
2023/06/18 12:54:13;;;;;;;;;;;31.30;41.30;;;;;;5094280;28;20344;-65
2023/06/18 12:56:46;;;;;;;;;;;31.20;44.10;;;;;;5094052;28;20060;-65
2023/06/18 12:59:16;;;;;;;;;;;31.00;41.60;;;;;;5094492;28;19989;-65
2023/06/18 13:01:43;;;;;;;;;;;30.70;41.80;;;;;;5094526;28;20354;-64
2023/06/18 13:04:09;;;;;;;;;;;30.60;40.50;;;;;;5093966;28;20466;-63
2023/06/18 13:06:35;;;;;;;;;;;30.50;45.60;;;;;;5094235;28;20001;-66
2023/06/18 13:09:02;;;;;;;;;;;30.40;41.70;;;;;;5094284;28;20129;-64
2023/06/18 13:11:27;;;;;;;;;;;30.80;45.50;;;;;;5093751;28;19985;-64
2023/06/18 13:13:53;;;;;;;;;;;31.10;45.30;;;;;;5094120;28;19981;-63
2023/06/18 13:16:19;;;;;;;;;;;31.10;43.30;;;;;;5094102;28;20024;-66
2023/06/18 13:18:45;;;;;;;;;;;30.90;41.50;;;;;;5093790;28;19985;-64
2023/06/18 13:21:10;;;;;;;;;;;30.70;42.40;;;;;;5094216;28;19985;-64
2023/06/18 13:23:36;;;;;;;;;;;31.10;45.70;;;;;;5093884;28;19981;-64
2023/06/18 13:26:01;;;;;;;;;;;31.50;45.40;;;;;;5093903;28;19986;-64
2023/06/18 13:28:27;;;;;;;;;;;32.00;47.30;;;;;;5093744;28;20545;-64
2023/06/18 13:30:53;;;;;;;;;;;32.20;39.50;;;;;;5093927;28;19981;-65
2023/06/18 13:33:19;;;;;;;;;;;32.50;39.30;;;;;;5094087;28;20068;-63
2023/06/18 13:35:45;;;;;;;;;;;32.80;40.60;;;;;;5093959;28;19985;-63
2023/06/18 13:38:11;;;;;;;;;;;32.90;41.20;;;;;;5093977;28;20350;-64
2023/06/18 13:40:36;;;;;;;;;;;32.90;42.00;;;;;;5093471;28;19993;-65
2023/06/18 13:43:02;;;;;;;;;;;33.20;45.00;;;;;;5093865;28;20039;-65
2023/06/18 13:45:28;;;;;;;;;;;33.40;42.30;;;;;;5093698;28;19992;-65
2023/06/18 13:47:54;;;;;;;;;;;33.50;38.10;;;;;;5093596;28;19981;-65
2023/06/18 13:50:19;;;;;;;;;;;33.70;43.00;;;;;;5093793;28;20030;-63
2023/06/18 13:52:45;;;;;;;;;;;33.70;41.90;;;;;;5093529;28;20025;-64
2023/06/18 13:55:10;;;;;;;;;;;33.90;38.10;;;;;;5093551;28;20059;-66
2023/06/18 13:57:36;;;;;;;;;;;33.80;41.00;;;;;;5093519;28;19991;-63
2023/06/18 14:00:03;;;;;;;;;;;33.90;39.90;;;;;;5093460;28;20452;-64
2023/06/18 14:02:28;;;;;;;;;;;34.10;43.00;;;;;;5093302;28;20004;-65
2023/06/18 14:04:54;;;;;;;;;;;34.20;38.20;;;;;;5093471;28;20451;-65
2023/06/18 14:07:20;;;;;;;;;;;34.10;38.00;;;;;;5093297;28;19997;-63
2023/06/18 14:09:46;;;;;;;;;;;34.10;37.70;;;;;;5093188;28;20005;-63
2023/06/18 14:12:12;;;;;;;;;;;34.40;40.40;;;;;;5093646;28;20393;-64
2023/06/18 14:14:38;;;;;;;;;;;34.20;39.10;;;;;;5093335;28;20020;-63